»·PEaware :: SWA1119 KPHX-KLAX

SWA1119 :: KPHX-KLAX

FLIGHT INFORMATION

Flight Status: Arrived
Operator:
Southwest Airlines
More flights by this operator :: More flights under this callsign
Pilot: Cody B. (17747)
Aircraft: BOEING 737-800
(B738)
More flights by this aircraft type
Origin: KPHX Phoenix Sky Harbor Intl
United States
Destination: KLAX Los Angeles Intl
United States
More flights between these airports :: More routes between these airports
Route: KEENS2 MESSI ESTWD HLYWD1
File this flight plan on PilotEdge
Remarks:
Altitude:
(Current/Filed)
34,000ft
Speed:
(Current/Filed)
464kts
Departed: 20-Jul-18 11:21 AM
Arrived: 20-Jul-18 12:15 PM
Distance/Time
Traveled:
320nm/0:54
Distance/Time
To Go:
Arrived

Flight Plot

Page will automatically refresh every two minutes.

Flight plan parsing failed; only flown route is shown


Map Options




Map Legend


Flown Route
Filed Route
Departure Airport
Arrival Airport
Navaid (VOR, NDB)
Fix

Horizontal Profiles

Position Reports

Time Latitude Longitude Heading Altitude Ground
Speed
20-Jul-18 10:51 33.434090 -111.993660 292 1141ft 0kts
20-Jul-18 10:52 33.434090 -111.993660 292 1141ft 0kts
20-Jul-18 10:53 33.434090 -111.993660 292 1141ft 0kts
20-Jul-18 10:54 33.434090 -111.993660 292 1141ft 0kts
20-Jul-18 10:55 33.434090 -111.993660 292 1141ft 0kts
20-Jul-18 10:56 33.434090 -111.993660 292 1141ft 0kts
20-Jul-18 10:57 33.434090 -111.993660 292 1141ft 0kts
20-Jul-18 10:58 33.434090 -111.993660 292 1141ft 0kts
20-Jul-18 10:59 33.434090 -111.993660 292 1141ft 0kts
20-Jul-18 11:00 33.434090 -111.993660 292 1141ft 0kts
20-Jul-18 11:01 33.434090 -111.993660 292 1141ft 0kts
20-Jul-18 11:02 33.434090 -111.993660 292 1141ft 0kts
20-Jul-18 11:03 33.434090 -111.993660 292 1141ft 0kts
20-Jul-18 11:04 33.434090 -111.993660 292 1141ft 0kts
20-Jul-18 11:05 33.434090 -111.993660 292 1141ft 0kts
20-Jul-18 11:06 33.434090 -111.993660 292 1141ft 0kts
20-Jul-18 11:07 33.434090 -111.993660 292 1141ft 0kts
20-Jul-18 11:08 33.434053 -111.993553 292 1142ft 1kts
20-Jul-18 11:09 33.434307 -111.993070 182 1142ft 0kts
20-Jul-18 11:10 33.434377 -111.993073 179 1142ft 0kts
20-Jul-18 11:11 33.434377 -111.993073 179 1142ft 0kts
20-Jul-18 11:12 33.434319 -111.993072 179 1142ft 1kts
20-Jul-18 11:13 33.433475 -111.993075 180 1142ft 0kts
20-Jul-18 11:14 33.433466 -111.993076 180 1142ft 0kts
20-Jul-18 11:15 33.432877 -111.992727 122 1142ft 5kts
20-Jul-18 11:16 33.432256 -111.992482 211 1142ft 3kts
20-Jul-18 11:17 33.432025 -111.992710 222 1142ft 0kts
20-Jul-18 11:18 33.432025 -111.992710 222 1142ft 0kts
20-Jul-18 11:19 33.432025 -111.992710 222 1142ft 0kts
20-Jul-18 11:20 33.431835 -111.992917 222 1142ft 4kts
20-Jul-18 11:21 33.431031 -111.995799 270 1142ft 39kts
20-Jul-18 11:22 33.430797 -112.041533 265 2311ft 176kts
20-Jul-18 11:23 33.429105 -112.106168 252 4338ft 214kts
20-Jul-18 11:24 33.400837 -112.172733 247 6708ft 240kts
20-Jul-18 11:25 33.400468 -112.257158 279 8670ft 284kts
20-Jul-18 11:26 33.414422 -112.353504 279 11088ft 304kts
20-Jul-18 11:27 33.429755 -112.458191 278 13032ft 333kts
20-Jul-18 11:28 33.445955 -112.568921 278 15304ft 347kts
20-Jul-18 11:29 33.453459 -112.684430 268 17373ft 359kts
20-Jul-18 11:30 33.457563 -112.804993 284 19261ft 376kts
20-Jul-18 11:31 33.496536 -112.922297 291 21208ft 385kts
20-Jul-18 11:32 33.537882 -113.041110 291 22944ft 393kts
20-Jul-18 11:33 33.580150 -113.162853 291 24508ft 402kts
20-Jul-18 11:34 33.623481 -113.288007 291 25850ft 413kts
20-Jul-18 11:35 33.667616 -113.415977 291 27181ft 421kts
20-Jul-18 11:36 33.712599 -113.546923 290 28397ft 429kts
20-Jul-18 11:37 33.757982 -113.679540 290 29650ft 433kts
20-Jul-18 11:38 33.803415 -113.812544 289 30980ft 431kts
20-Jul-18 11:39 33.848406 -113.945065 289 32182ft 428kts
20-Jul-18 11:40 33.893095 -114.077044 289 33250ft 426kts
20-Jul-18 11:41 33.923694 -114.213317 278 33927ft 428kts
20-Jul-18 11:42 33.947384 -114.356262 278 33938ft 452kts
20-Jul-18 11:43 33.972500 -114.507282 278 33930ft 463kts
20-Jul-18 11:44 33.997600 -114.658658 278 33930ft 462kts
20-Jul-18 11:45 34.022131 -114.807457 278 33931ft 462kts
20-Jul-18 11:46 34.042821 -114.933801 278 33930ft 462kts
20-Jul-18 11:47 34.067446 -115.085066 278 33930ft 462kts
20-Jul-18 11:48 34.092107 -115.237429 278 33930ft 462kts
20-Jul-18 11:49 34.116195 -115.387379 277 33948ft 464kts
20-Jul-18 11:50 34.140520 -115.540117 277 34069ft 464kts
20-Jul-18 11:51 34.161791 -115.708693 262 34067ft 456kts
20-Jul-18 11:52 34.148514 -115.855148 259 33088ft 456kts
20-Jul-18 11:53 34.136235 -115.980231 259 32260ft 458kts
20-Jul-18 11:54 34.121403 -116.131270 259 31237ft 450kts
20-Jul-18 11:55 34.106686 -116.278968 259 30224ft 444kts
20-Jul-18 11:56 34.091181 -116.425707 259 28024ft 439kts
20-Jul-18 11:57 34.075604 -116.569949 259 25291ft 428kts
20-Jul-18 11:58 34.063370 -116.697019 260 23292ft 409kts
20-Jul-18 11:59 34.051116 -116.827830 260 20983ft 400kts
20-Jul-18 12:00 34.037316 -116.955573 258 20082ft 383kts
20-Jul-18 12:01 34.021110 -117.082473 259 18897ft 375kts
20-Jul-18 12:02 34.006384 -117.206027 259 16773ft 379kts
20-Jul-18 12:03 33.991704 -117.328459 259 14677ft 355kts
20-Jul-18 12:04 33.978111 -117.443817 259 12731ft 349kts
20-Jul-18 12:05 33.987981 -117.554128 284 11360ft 342kts
20-Jul-18 12:06 34.013393 -117.662680 283 10335ft 337kts
20-Jul-18 12:07 34.015583 -117.763019 259 9105ft 291kts
20-Jul-18 12:08 34.006368 -117.858107 259 7871ft 288kts
20-Jul-18 12:09 33.997576 -117.952623 259 6498ft 276kts
20-Jul-18 12:10 33.988539 -118.044784 259 5137ft 279kts
20-Jul-18 12:11 33.980957 -118.132883 261 3786ft 254kts
20-Jul-18 12:12 33.973150 -118.215587 258 2680ft 244kts
20-Jul-18 12:13 33.963163 -118.289925 264 2387ft 206kts
20-Jul-18 12:14 33.957287 -118.349667 263 1100ft 161kts
20-Jul-18 12:15 33.952398 -118.399229 261 217ft 144kts
20-Jul-18 12:16 33.950491 -118.417041 252 133ft 9kts
20-Jul-18 12:17 33.949149 -118.419696 233 133ft 9kts
20-Jul-18 12:18 33.947562 -118.422284 230 133ft 7kts
20-Jul-18 12:19 33.947179 -118.422421 153 133ft 0kts
20-Jul-18 12:20 33.947042 -118.421962 104 133ft 4kts
20-Jul-18 12:21 33.947072 -118.420715 83 133ft 3kts
20-Jul-18 12:22 33.947267 -118.418715 83 133ft 10kts
20-Jul-18 12:23 33.947732 -118.414294 75 133ft 9kts
20-Jul-18 12:24 33.947265 -118.412718 129 133ft 4kts
20-Jul-18 12:25 33.947441 -118.410033 83 133ft 12kts
20-Jul-18 12:26 33.947846 -118.405926 84 133ft 12kts
20-Jul-18 12:27 33.948280 -118.402246 81 133ft 10kts
20-Jul-18 12:28 33.947675 -118.400033 185 133ft 6kts
20-Jul-18 12:29 33.947001 -118.400089 205 133ft 0kts
20-Jul-18 12:30 33.946869 -118.400405 256 133ft 1kts

Navigation Log

Ident Type
Flight plan parsing failed, navigation log unavailable